sensor_id;sensor_type;location;lat;lon;timestamp;temperature;humidity
20750;DHT22;10535;50.664;4.564;2023-04-24T00:00:11;10.00;99.90
20750;DHT22;10535;50.664;4.564;2023-04-24T00:02:40;10.00;99.90
20750;DHT22;10535;50.664;4.564;2023-04-24T00:05:07;10.00;99.90
20750;DHT22;10535;50.664;4.564;2023-04-24T00:07:33;9.80;99.90
20750;DHT22;10535;50.664;4.564;2023-04-24T00:09:59;9.90;99.90
20750;DHT22;10535;50.664;4.564;2023-04-24T00:12:26;9.90;99.90
20750;DHT22;10535;50.664;4.564;2023-04-24T00:14:53;9.90;99.90
20750;DHT22;10535;50.664;4.564;2023-04-24T00:17:19;10.00;99.90
20750;DHT22;10535;50.664;4.564;2023-04-24T00:19:48;10.00;99.90
20750;DHT22;10535;50.664;4.564;2023-04-24T00:22:15;10.00;99.90
20750;DHT22;10535;50.664;4.564;2023-04-24T00:24:41;10.00;99.90
20750;DHT22;10535;50.664;4.564;2023-04-24T00:27:07;9.90;99.90
20750;DHT22;10535;50.664;4.564;2023-04-24T00:29:32;9.90;99.90
20750;DHT22;10535;50.664;4.564;2023-04-24T00:31:58;9.90;99.90
20750;DHT22;10535;50.664;4.564;2023-04-24T00:34:24;10.00;99.90
20750;DHT22;10535;50.664;4.564;2023-04-24T00:36:49;10.00;99.90
20750;DHT22;10535;50.664;4.564;2023-04-24T00:39:18;10.00;99.90
20750;DHT22;10535;50.664;4.564;2023-04-24T00:41:45;10.10;99.90
20750;DHT22;10535;50.664;4.564;2023-04-24T00:44:11;10.00;99.90
20750;DHT22;10535;50.664;4.564;2023-04-24T00:46:37;10.00;99.90
20750;DHT22;10535;50.664;4.564;2023-04-24T00:49:04;10.00;99.90
20750;DHT22;10535;50.664;4.564;2023-04-24T00:51:31;9.90;99.90
20750;DHT22;10535;50.664;4.564;2023-04-24T00:53:58;9.80;99.90
20750;DHT22;10535;50.664;4.564;2023-04-24T00:56:24;9.80;99.90
20750;DHT22;10535;50.664;4.564;2023-04-24T00:58:50;9.80;99.90
20750;DHT22;10535;50.664;4.564;2023-04-24T01:01:16;9.70;99.90
20750;DHT22;10535;50.664;4.564;2023-04-24T01:03:42;9.90;99.90
20750;DHT22;10535;50.664;4.564;2023-04-24T01:06:09;9.90;99.90
20750;DHT22;10535;50.664;4.564;2023-04-24T01:08:36;10.00;99.90
20750;DHT22;10535;50.664;4.564;2023-04-24T01:11:03;9.80;99.90
20750;DHT22;10535;50.664;4.564;2023-04-24T01:13:31;9.80;99.90
20750;DHT22;10535;50.664;4.564;2023-04-24T01:15:57;9.70;99.90
20750;DHT22;10535;50.664;4.564;2023-04-24T01:18:23;9.70;99.90
20750;DHT22;10535;50.664;4.564;2023-04-24T01:20:50;9.70;99.90
20750;DHT22;10535;50.664;4.564;2023-04-24T01:23:17;9.70;99.90
20750;DHT22;10535;50.664;4.564;2023-04-24T01:25:42;9.50;99.90
20750;DHT22;10535;50.664;4.564;2023-04-24T01:28:08;9.60;99.90
20750;DHT22;10535;50.664;4.564;2023-04-24T01:30:34;9.60;99.90
20750;DHT22;10535;50.664;4.564;2023-04-24T01:33:00;9.50;99.90
20750;DHT22;10535;50.664;4.564;2023-04-24T01:35:26;9.60;99.90
20750;DHT22;10535;50.664;4.564;2023-04-24T01:37:52;9.70;99.90
20750;DHT22;10535;50.664;4.564;2023-04-24T01:40:18;9.80;99.90
20750;DHT22;10535;50.664;4.564;2023-04-24T01:42:43;9.70;99.90
20750;DHT22;10535;50.664;4.564;2023-04-24T01:45:11;9.70;99.90
20750;DHT22;10535;50.664;4.564;2023-04-24T01:47:38;9.50;99.90
20750;DHT22;10535;50.664;4.564;2023-04-24T01:50:06;9.60;99.90
20750;DHT22;10535;50.664;4.564;2023-04-24T01:52:32;9.50;99.90
20750;DHT22;10535;50.664;4.564;2023-04-24T01:55:05;9.40;99.90
20750;DHT22;10535;50.664;4.564;2023-04-24T01:57:31;9.30;99.90
20750;DHT22;10535;50.664;4.564;2023-04-24T01:59:57;9.30;99.90
20750;DHT22;10535;50.664;4.564;2023-04-24T02:02:23;9.30;99.90
20750;DHT22;10535;50.664;4.564;2023-04-24T02:04:50;9.30;99.90
20750;DHT22;10535;50.664;4.564;2023-04-24T02:07:16;9.20;99.90
20750;DHT22;10535;50.664;4.564;2023-04-24T02:09:41;9.30;99.90
20750;DHT22;10535;50.664;4.564;2023-04-24T02:12:07;9.30;99.90
20750;DHT22;10535;50.664;4.564;2023-04-24T02:14:33;9.20;99.90
20750;DHT22;10535;50.664;4.564;2023-04-24T02:16:59;9.20;99.90
20750;DHT22;10535;50.664;4.564;2023-04-24T02:19:26;9.10;99.90
20750;DHT22;10535;50.664;4.564;2023-04-24T02:21:52;9.10;99.90
20750;DHT22;10535;50.664;4.564;2023-04-24T02:24:17;8.90;99.90
20750;DHT22;10535;50.664;4.564;2023-04-24T02:26:43;9.10;99.90
20750;DHT22;10535;50.664;4.564;2023-04-24T02:29:08;9.00;99.90
20750;DHT22;10535;50.664;4.564;2023-04-24T02:31:34;9.10;99.90
20750;DHT22;10535;50.664;4.564;2023-04-24T02:34:00;9.00;99.90
20750;DHT22;10535;50.664;4.564;2023-04-24T02:36:25;9.10;99.90
20750;DHT22;10535;50.664;4.564;2023-04-24T02:38:51;9.10;99.90
20750;DHT22;10535;50.664;4.564;2023-04-24T02:41:17;9.00;99.90
20750;DHT22;10535;50.664;4.564;2023-04-24T02:43:42;9.10;99.90
20750;DHT22;10535;50.664;4.564;2023-04-24T02:46:08;9.10;99.90
20750;DHT22;10535;50.664;4.564;2023-04-24T02:48:33;9.00;99.90
20750;DHT22;10535;50.664;4.564;2023-04-24T02:50:59;9.10;99.90
20750;DHT22;10535;50.664;4.564;2023-04-24T02:53:25;9.10;99.90
20750;DHT22;10535;50.664;4.564;2023-04-24T02:55:52;9.10;99.90
20750;DHT22;10535;50.664;4.564;2023-04-24T02:58:17;9.10;99.90
20750;DHT22;10535;50.664;4.564;2023-04-24T03:00:45;9.10;99.90
20750;DHT22;10535;50.664;4.564;2023-04-24T03:03:12;9.10;99.90
20750;DHT22;10535;50.664;4.564;2023-04-24T03:05:37;9.20;99.90
20750;DHT22;10535;50.664;4.564;2023-04-24T03:08:04;9.20;99.90
20750;DHT22;10535;50.664;4.564;2023-04-24T03:10:30;9.10;99.90
20750;DHT22;10535;50.664;4.564;2023-04-24T03:12:55;9.10;99.90
20750;DHT22;10535;50.664;4.564;2023-04-24T03:15:21;8.90;99.90
20750;DHT22;10535;50.664;4.564;2023-04-24T03:17:47;9.00;99.90
20750;DHT22;10535;50.664;4.564;2023-04-24T03:20:13;8.90;99.90
20750;DHT22;10535;50.664;4.564;2023-04-24T03:22:40;8.80;99.90
20750;DHT22;10535;50.664;4.564;2023-04-24T03:25:05;8.90;99.90
20750;DHT22;10535;50.664;4.564;2023-04-24T03:27:31;8.90;99.90
20750;DHT22;10535;50.664;4.564;2023-04-24T03:29:57;8.90;99.90
20750;DHT22;10535;50.664;4.564;2023-04-24T03:32:23;8.90;99.90
20750;DHT22;10535;50.664;4.564;2023-04-24T03:34:49;8.80;99.90
20750;DHT22;10535;50.664;4.564;2023-04-24T03:37:16;8.80;99.90
20750;DHT22;10535;50.664;4.564;2023-04-24T03:39:41;8.80;99.90
20750;DHT22;10535;50.664;4.564;2023-04-24T03:42:07;8.80;99.90
20750;DHT22;10535;50.664;4.564;2023-04-24T03:44:34;8.80;99.90
20750;DHT22;10535;50.664;4.564;2023-04-24T03:47:01;8.80;99.90
20750;DHT22;10535;50.664;4.564;2023-04-24T03:49:27;8.80;99.90
20750;DHT22;10535;50.664;4.564;2023-04-24T03:51:54;8.80;99.90
20750;DHT22;10535;50.664;4.564;2023-04-24T03:54:20;8.70;99.90
20750;DHT22;10535;50.664;4.564;2023-04-24T03:56:45;8.70;99.90
20750;DHT22;10535;50.664;4.564;2023-04-24T03:59:11;8.60;99.90
20750;DHT22;10535;50.664;4.564;2023-04-24T04:01:37;8.70;99.90
20750;DHT22;10535;50.664;4.564;2023-04-24T04:04:06;8.70;99.90
20750;DHT22;10535;50.664;4.564;2023-04-24T04:06:32;8.60;99.90
20750;DHT22;10535;50.664;4.564;2023-04-24T04:08:58;8.70;99.90
20750;DHT22;10535;50.664;4.564;2023-04-24T04:11:24;8.80;99.90
20750;DHT22;10535;50.664;4.564;2023-04-24T04:13:49;8.80;99.90
20750;DHT22;10535;50.664;4.564;2023-04-24T04:16:15;8.80;99.90
20750;DHT22;10535;50.664;4.564;2023-04-24T04:18:44;8.70;99.90
20750;DHT22;10535;50.664;4.564;2023-04-24T04:21:10;8.70;99.90
20750;DHT22;10535;50.664;4.564;2023-04-24T04:23:37;8.70;99.90
20750;DHT22;10535;50.664;4.564;2023-04-24T04:26:03;8.80;99.90
20750;DHT22;10535;50.664;4.564;2023-04-24T04:28:29;8.80;99.90
20750;DHT22;10535;50.664;4.564;2023-04-24T04:30:57;8.80;99.90
20750;DHT22;10535;50.664;4.564;2023-04-24T04:33:26;8.80;99.90
20750;DHT22;10535;50.664;4.564;2023-04-24T04:35:52;8.70;99.90
20750;DHT22;10535;50.664;4.564;2023-04-24T04:38:18;8.80;99.90
20750;DHT22;10535;50.664;4.564;2023-04-24T04:40:45;8.70;99.90
20750;DHT22;10535;50.664;4.564;2023-04-24T04:43:11;8.90;99.90
20750;DHT22;10535;50.664;4.564;2023-04-24T04:45:38;8.90;99.90
20750;DHT22;10535;50.664;4.564;2023-04-24T04:48:05;8.90;99.90
20750;DHT22;10535;50.664;4.564;2023-04-24T04:50:33;9.00;99.90
20750;DHT22;10535;50.664;4.564;2023-04-24T04:52:59;9.00;99.90
20750;DHT22;10535;50.664;4.564;2023-04-24T04:55:24;9.10;99.90
20750;DHT22;10535;50.664;4.564;2023-04-24T04:57:51;9.20;99.90
20750;DHT22;10535;50.664;4.564;2023-04-24T05:00:17;9.20;99.90
20750;DHT22;10535;50.664;4.564;2023-04-24T05:02:43;9.10;99.90
20750;DHT22;10535;50.664;4.564;2023-04-24T05:05:09;9.10;99.90
20750;DHT22;10535;50.664;4.564;2023-04-24T05:07:35;9.00;99.90
20750;DHT22;10535;50.664;4.564;2023-04-24T05:10:01;8.90;99.90
20750;DHT22;10535;50.664;4.564;2023-04-24T05:12:27;8.80;99.90
20750;DHT22;10535;50.664;4.564;2023-04-24T05:14:52;8.70;99.90
20750;DHT22;10535;50.664;4.564;2023-04-24T05:17:18;8.70;99.90
20750;DHT22;10535;50.664;4.564;2023-04-24T05:19:44;8.70;99.90
20750;DHT22;10535;50.664;4.564;2023-04-24T05:22:10;8.70;99.90
20750;DHT22;10535;50.664;4.564;2023-04-24T05:24:37;8.60;99.90
20750;DHT22;10535;50.664;4.564;2023-04-24T05:27:03;8.60;99.90
20750;DHT22;10535;50.664;4.564;2023-04-24T05:29:32;8.60;99.90
20750;DHT22;10535;50.664;4.564;2023-04-24T05:31:59;8.60;99.90
20750;DHT22;10535;50.664;4.564;2023-04-24T05:34:24;8.60;99.90
20750;DHT22;10535;50.664;4.564;2023-04-24T05:36:50;8.60;99.90
20750;DHT22;10535;50.664;4.564;2023-04-24T05:39:17;8.60;99.90
20750;DHT22;10535;50.664;4.564;2023-04-24T05:41:43;8.60;99.90
20750;DHT22;10535;50.664;4.564;2023-04-24T05:44:09;8.60;99.90
20750;DHT22;10535;50.664;4.564;2023-04-24T05:46:34;8.70;99.90
20750;DHT22;10535;50.664;4.564;2023-04-24T05:49:00;8.70;99.90
20750;DHT22;10535;50.664;4.564;2023-04-24T05:51:26;8.60;99.90
20750;DHT22;10535;50.664;4.564;2023-04-24T05:53:52;8.60;99.90
20750;DHT22;10535;50.664;4.564;2023-04-24T05:56:18;8.70;99.90
20750;DHT22;10535;50.664;4.564;2023-04-24T05:58:44;8.80;99.90
20750;DHT22;10535;50.664;4.564;2023-04-24T06:01:10;8.80;99.90
20750;DHT22;10535;50.664;4.564;2023-04-24T06:03:37;8.70;99.90
20750;DHT22;10535;50.664;4.564;2023-04-24T06:06:05;8.70;99.90
20750;DHT22;10535;50.664;4.564;2023-04-24T06:08:31;8.80;99.90
20750;DHT22;10535;50.664;4.564;2023-04-24T06:10:58;8.60;99.90
20750;DHT22;10535;50.664;4.564;2023-04-24T06:13:25;8.60;99.90
20750;DHT22;10535;50.664;4.564;2023-04-24T06:15:57;8.60;99.90
20750;DHT22;10535;50.664;4.564;2023-04-24T06:18:23;8.70;99.90
20750;DHT22;10535;50.664;4.564;2023-04-24T06:20:48;8.80;99.90
20750;DHT22;10535;50.664;4.564;2023-04-24T06:23:15;8.90;99.90
20750;DHT22;10535;50.664;4.564;2023-04-24T06:25:40;9.00;99.90
20750;DHT22;10535;50.664;4.564;2023-04-24T06:28:07;8.90;99.90
20750;DHT22;10535;50.664;4.564;2023-04-24T06:30:33;8.90;99.90
20750;DHT22;10535;50.664;4.564;2023-04-24T06:32:59;8.90;99.90
20750;DHT22;10535;50.664;4.564;2023-04-24T06:35:27;9.00;99.90
20750;DHT22;10535;50.664;4.564;2023-04-24T06:37:56;8.90;99.90
20750;DHT22;10535;50.664;4.564;2023-04-24T06:40:22;8.90;99.90
20750;DHT22;10535;50.664;4.564;2023-04-24T06:42:47;8.90;99.90
20750;DHT22;10535;50.664;4.564;2023-04-24T06:45:13;8.90;99.90
20750;DHT22;10535;50.664;4.564;2023-04-24T06:47:39;9.00;99.90
20750;DHT22;10535;50.664;4.564;2023-04-24T06:50:05;9.00;99.90
20750;DHT22;10535;50.664;4.564;2023-04-24T06:52:31;9.10;99.90
20750;DHT22;10535;50.664;4.564;2023-04-24T06:55:03;9.10;99.90
20750;DHT22;10535;50.664;4.564;2023-04-24T06:57:29;9.30;99.90
20750;DHT22;10535;50.664;4.564;2023-04-24T06:59:55;9.20;99.90
20750;DHT22;10535;50.664;4.564;2023-04-24T07:02:20;9.20;99.90
20750;DHT22;10535;50.664;4.564;2023-04-24T07:04:46;9.30;99.90
20750;DHT22;10535;50.664;4.564;2023-04-24T07:07:13;9.30;99.90
20750;DHT22;10535;50.664;4.564;2023-04-24T07:09:42;9.40;99.90
20750;DHT22;10535;50.664;4.564;2023-04-24T07:12:08;9.50;99.90
20750;DHT22;10535;50.664;4.564;2023-04-24T07:14:36;9.50;99.90
20750;DHT22;10535;50.664;4.564;2023-04-24T07:17:05;9.60;99.90
20750;DHT22;10535;50.664;4.564;2023-04-24T07:19:32;9.60;99.90
20750;DHT22;10535;50.664;4.564;2023-04-24T07:21:58;9.60;99.90
20750;DHT22;10535;50.664;4.564;2023-04-24T07:24:25;9.80;99.90
20750;DHT22;10535;50.664;4.564;2023-04-24T07:26:51;10.00;99.90
20750;DHT22;10535;50.664;4.564;2023-04-24T07:29:18;10.10;99.90
20750;DHT22;10535;50.664;4.564;2023-04-24T07:31:44;10.10;99.90
20750;DHT22;10535;50.664;4.564;2023-04-24T07:34:09;10.10;99.90
20750;DHT22;10535;50.664;4.564;2023-04-24T07:36:35;10.10;99.90
20750;DHT22;10535;50.664;4.564;2023-04-24T07:39:04;10.20;99.90
20750;DHT22;10535;50.664;4.564;2023-04-24T07:41:30;10.30;99.90
20750;DHT22;10535;50.664;4.564;2023-04-24T07:43:55;10.30;99.90
20750;DHT22;10535;50.664;4.564;2023-04-24T07:46:21;10.30;99.90
20750;DHT22;10535;50.664;4.564;2023-04-24T07:48:47;10.20;99.90
20750;DHT22;10535;50.664;4.564;2023-04-24T07:51:14;10.20;99.90
20750;DHT22;10535;50.664;4.564;2023-04-24T07:53:40;10.30;99.90
20750;DHT22;10535;50.664;4.564;2023-04-24T07:56:06;10.20;99.90
20750;DHT22;10535;50.664;4.564;2023-04-24T07:58:32;10.20;99.90
20750;DHT22;10535;50.664;4.564;2023-04-24T08:00:58;10.30;99.90
20750;DHT22;10535;50.664;4.564;2023-04-24T08:03:23;10.50;99.90
20750;DHT22;10535;50.664;4.564;2023-04-24T08:05:50;10.60;99.90
20750;DHT22;10535;50.664;4.564;2023-04-24T08:08:16;10.60;99.90
20750;DHT22;10535;50.664;4.564;2023-04-24T08:10:42;10.70;99.90
20750;DHT22;10535;50.664;4.564;2023-04-24T08:13:08;10.90;99.90
20750;DHT22;10535;50.664;4.564;2023-04-24T08:15:34;10.70;99.90
20750;DHT22;10535;50.664;4.564;2023-04-24T08:17:59;10.60;99.90
20750;DHT22;10535;50.664;4.564;2023-04-24T08:20:25;10.30;99.90
20750;DHT22;10535;50.664;4.564;2023-04-24T08:22:51;10.40;99.90
20750;DHT22;10535;50.664;4.564;2023-04-24T08:25:17;10.50;99.90
20750;DHT22;10535;50.664;4.564;2023-04-24T08:27:44;10.50;99.90
20750;DHT22;10535;50.664;4.564;2023-04-24T08:30:10;10.40;99.90
20750;DHT22;10535;50.664;4.564;2023-04-24T08:32:36;10.30;99.90
20750;DHT22;10535;50.664;4.564;2023-04-24T08:35:02;10.30;99.90
20750;DHT22;10535;50.664;4.564;2023-04-24T08:37:29;10.20;99.90
20750;DHT22;10535;50.664;4.564;2023-04-24T08:39:54;10.20;99.90
20750;DHT22;10535;50.664;4.564;2023-04-24T08:42:21;10.50;99.90
20750;DHT22;10535;50.664;4.564;2023-04-24T08:44:49;10.90;99.90
20750;DHT22;10535;50.664;4.564;2023-04-24T08:47:15;11.10;99.90
20750;DHT22;10535;50.664;4.564;2023-04-24T08:49:41;11.10;99.90
20750;DHT22;10535;50.664;4.564;2023-04-24T08:52:09;11.00;99.90
20750;DHT22;10535;50.664;4.564;2023-04-24T08:54:35;10.90;99.90
20750;DHT22;10535;50.664;4.564;2023-04-24T08:57:02;11.00;99.90
20750;DHT22;10535;50.664;4.564;2023-04-24T08:59:29;11.30;99.90
20750;DHT22;10535;50.664;4.564;2023-04-24T09:01:55;11.20;99.90
20750;DHT22;10535;50.664;4.564;2023-04-24T09:04:24;11.70;99.90
20750;DHT22;10535;50.664;4.564;2023-04-24T09:06:51;11.40;99.90
20750;DHT22;10535;50.664;4.564;2023-04-24T09:09:17;11.40;99.90
20750;DHT22;10535;50.664;4.564;2023-04-24T09:11:44;11.40;99.90
20750;DHT22;10535;50.664;4.564;2023-04-24T09:14:10;11.50;99.90
20750;DHT22;10535;50.664;4.564;2023-04-24T09:16:36;11.60;99.90
20750;DHT22;10535;50.664;4.564;2023-04-24T09:19:02;11.60;99.90
20750;DHT22;10535;50.664;4.564;2023-04-24T09:21:32;11.50;99.90
20750;DHT22;10535;50.664;4.564;2023-04-24T09:24:05;11.40;99.90
20750;DHT22;10535;50.664;4.564;2023-04-24T09:26:32;11.70;99.90
20750;DHT22;10535;50.664;4.564;2023-04-24T09:28:58;12.10;99.90
20750;DHT22;10535;50.664;4.564;2023-04-24T09:31:27;12.20;99.90
20750;DHT22;10535;50.664;4.564;2023-04-24T09:34:04;12.00;99.90
20750;DHT22;10535;50.664;4.564;2023-04-24T09:36:34;11.90;99.90
20750;DHT22;10535;50.664;4.564;2023-04-24T09:39:09;12.00;99.90
20750;DHT22;10535;50.664;4.564;2023-04-24T09:41:54;11.60;99.90
20750;DHT22;10535;50.664;4.564;2023-04-24T09:44:26;11.70;99.90
20750;DHT22;10535;50.664;4.564;2023-04-24T09:46:54;12.00;99.90
20750;DHT22;10535;50.664;4.564;2023-04-24T09:49:23;12.20;99.90
20750;DHT22;10535;50.664;4.564;2023-04-24T09:51:49;12.20;99.90
20750;DHT22;10535;50.664;4.564;2023-04-24T09:54:18;12.10;99.90
20750;DHT22;10535;50.664;4.564;2023-04-24T09:56:47;12.20;99.90
20750;DHT22;10535;50.664;4.564;2023-04-24T09:59:15;12.40;99.90
20750;DHT22;10535;50.664;4.564;2023-04-24T10:01:41;12.40;99.90
20750;DHT22;10535;50.664;4.564;2023-04-24T10:04:28;12.30;99.90
20750;DHT22;10535;50.664;4.564;2023-04-24T10:06:55;12.20;99.90
20750;DHT22;10535;50.664;4.564;2023-04-24T10:09:23;12.20;99.90
20750;DHT22;10535;50.664;4.564;2023-04-24T10:11:51;12.20;99.90
20750;DHT22;10535;50.664;4.564;2023-04-24T10:14:19;12.20;99.90
20750;DHT22;10535;50.664;4.564;2023-04-24T10:16:47;12.30;99.90
20750;DHT22;10535;50.664;4.564;2023-04-24T10:19:14;12.40;99.90
20750;DHT22;10535;50.664;4.564;2023-04-24T10:21:43;12.30;99.90
20750;DHT22;10535;50.664;4.564;2023-04-24T10:24:16;12.00;99.90
20750;DHT22;10535;50.664;4.564;2023-04-24T10:26:42;11.90;99.90
20750;DHT22;10535;50.664;4.564;2023-04-24T10:29:08;11.90;99.90
20750;DHT22;10535;50.664;4.564;2023-04-24T10:31:37;12.00;99.90
20750;DHT22;10535;50.664;4.564;2023-04-24T10:34:05;12.20;99.90
20750;DHT22;10535;50.664;4.564;2023-04-24T10:36:38;12.30;99.90
20750;DHT22;10535;50.664;4.564;2023-04-24T10:39:08;12.60;99.90
20750;DHT22;10535;50.664;4.564;2023-04-24T10:41:38;12.40;99.90
20750;DHT22;10535;50.664;4.564;2023-04-24T10:44:09;12.10;99.90
20750;DHT22;10535;50.664;4.564;2023-04-24T10:46:39;12.10;99.90
20750;DHT22;10535;50.664;4.564;2023-04-24T10:49:08;12.10;99.90
20750;DHT22;10535;50.664;4.564;2023-04-24T10:51:51;12.10;99.90
20750;DHT22;10535;50.664;4.564;2023-04-24T10:54:41;12.60;99.90
20750;DHT22;10535;50.664;4.564;2023-04-24T11:00:18;13.20;99.90
20750;DHT22;10535;50.664;4.564;2023-04-24T11:02:47;12.90;99.90
20750;DHT22;10535;50.664;4.564;2023-04-24T11:05:19;12.30;99.90
20750;DHT22;10535;50.664;4.564;2023-04-24T11:08:14;12.40;99.90
20750;DHT22;10535;50.664;4.564;2023-04-24T11:13:10;12.30;99.90
20750;DHT22;10535;50.664;4.564;2023-04-24T11:15:42;12.40;99.90
20750;DHT22;10535;50.664;4.564;2023-04-24T11:18:14;12.10;99.90
20750;DHT22;10535;50.664;4.564;2023-04-24T11:20:59;12.00;99.90
20750;DHT22;10535;50.664;4.564;2023-04-24T11:23:36;12.10;99.90
20750;DHT22;10535;50.664;4.564;2023-04-24T11:26:14;12.20;99.90
20750;DHT22;10535;50.664;4.564;2023-04-24T11:28:49;12.20;99.90
20750;DHT22;10535;50.664;4.564;2023-04-24T11:31:38;12.50;99.90
20750;DHT22;10535;50.664;4.564;2023-04-24T11:34:13;13.00;99.90
20750;DHT22;10535;50.664;4.564;2023-04-24T11:36:43;12.90;99.90
20750;DHT22;10535;50.664;4.564;2023-04-24T11:39:11;13.00;99.90
20750;DHT22;10535;50.664;4.564;2023-04-24T11:41:38;12.60;99.90
20750;DHT22;10535;50.664;4.564;2023-04-24T11:44:09;12.40;99.90
20750;DHT22;10535;50.664;4.564;2023-04-24T11:46:35;12.10;99.90
20750;DHT22;10535;50.664;4.564;2023-04-24T11:49:03;12.30;99.90
20750;DHT22;10535;50.664;4.564;2023-04-24T11:51:29;12.10;99.90
20750;DHT22;10535;50.664;4.564;2023-04-24T11:53:58;12.20;99.90
20750;DHT22;10535;50.664;4.564;2023-04-24T11:56:25;12.10;99.90
20750;DHT22;10535;50.664;4.564;2023-04-24T11:58:54;12.10;99.90
20750;DHT22;10535;50.664;4.564;2023-04-24T12:01:20;12.40;99.90
20750;DHT22;10535;50.664;4.564;2023-04-24T12:03:50;13.20;99.90
20750;DHT22;10535;50.664;4.564;2023-04-24T12:06:18;13.40;99.90
20750;DHT22;10535;50.664;4.564;2023-04-24T12:08:48;13.40;99.90
20750;DHT22;10535;50.664;4.564;2023-04-24T12:11:16;13.50;99.90
20750;DHT22;10535;50.664;4.564;2023-04-24T12:13:44;13.60;99.90
20750;DHT22;10535;50.664;4.564;2023-04-24T12:16:12;13.30;99.90
20750;DHT22;10535;50.664;4.564;2023-04-24T12:18:42;13.00;99.90
20750;DHT22;10535;50.664;4.564;2023-04-24T12:23:46;12.70;99.90
20750;DHT22;10535;50.664;4.564;2023-04-24T12:26:19;13.00;99.90
20750;DHT22;10535;50.664;4.564;2023-04-24T12:28:47;13.30;99.90
20750;DHT22;10535;50.664;4.564;2023-04-24T12:31:17;13.60;99.90
20750;DHT22;10535;50.664;4.564;2023-04-24T12:33:43;13.70;99.90
20750;DHT22;10535;50.664;4.564;2023-04-24T12:36:12;13.90;99.90
20750;DHT22;10535;50.664;4.564;2023-04-24T12:38:38;14.10;99.90
20750;DHT22;10535;50.664;4.564;2023-04-24T12:41:08;14.10;99.90
20750;DHT22;10535;50.664;4.564;2023-04-24T12:43:35;13.70;99.90
20750;DHT22;10535;50.664;4.564;2023-04-24T12:46:01;13.60;99.90
20750;DHT22;10535;50.664;4.564;2023-04-24T12:48:27;13.50;99.90
20750;DHT22;10535;50.664;4.564;2023-04-24T12:50:53;13.10;99.90
20750;DHT22;10535;50.664;4.564;2023-04-24T12:53:19;12.90;99.90
20750;DHT22;10535;50.664;4.564;2023-04-24T12:55:45;13.00;99.90
20750;DHT22;10535;50.664;4.564;2023-04-24T12:58:12;13.30;99.90
20750;DHT22;10535;50.664;4.564;2023-04-24T13:00:38;13.60;99.90
20750;DHT22;10535;50.664;4.564;2023-04-24T13:03:04;13.80;99.90
20750;DHT22;10535;50.664;4.564;2023-04-24T13:05:30;14.10;99.90
20750;DHT22;10535;50.664;4.564;2023-04-24T13:07:56;14.10;99.90
20750;DHT22;10535;50.664;4.564;2023-04-24T13:10:22;14.10;99.90
20750;DHT22;10535;50.664;4.564;2023-04-24T13:12:48;13.80;99.90
20750;DHT22;10535;50.664;4.564;2023-04-24T13:15:14;13.50;99.90
20750;DHT22;10535;50.664;4.564;2023-04-24T13:17:40;13.20;99.90
20750;DHT22;10535;50.664;4.564;2023-04-24T13:20:06;12.80;99.90
20750;DHT22;10535;50.664;4.564;2023-04-24T13:22:32;12.50;99.90
20750;DHT22;10535;50.664;4.564;2023-04-24T13:24:58;12.60;99.90
20750;DHT22;10535;50.664;4.564;2023-04-24T13:27:23;12.70;99.90
20750;DHT22;10535;50.664;4.564;2023-04-24T13:29:49;12.90;99.90
20750;DHT22;10535;50.664;4.564;2023-04-24T13:32:15;13.20;99.90
20750;DHT22;10535;50.664;4.564;2023-04-24T13:34:40;13.30;99.90
20750;DHT22;10535;50.664;4.564;2023-04-24T13:37:06;13.30;99.90
20750;DHT22;10535;50.664;4.564;2023-04-24T13:39:34;13.20;99.90
20750;DHT22;10535;50.664;4.564;2023-04-24T13:42:00;13.00;99.90
20750;DHT22;10535;50.664;4.564;2023-04-24T13:44:26;13.00;99.90
20750;DHT22;10535;50.664;4.564;2023-04-24T13:46:54;12.90;99.90
20750;DHT22;10535;50.664;4.564;2023-04-24T13:49:22;12.70;99.90
20750;DHT22;10535;50.664;4.564;2023-04-24T13:51:50;12.60;99.90
20750;DHT22;10535;50.664;4.564;2023-04-24T13:54:16;12.40;99.90
20750;DHT22;10535;50.664;4.564;2023-04-24T13:56:42;12.50;99.90
20750;DHT22;10535;50.664;4.564;2023-04-24T13:59:08;12.50;99.90
20750;DHT22;10535;50.664;4.564;2023-04-24T14:01:34;12.50;99.90
20750;DHT22;10535;50.664;4.564;2023-04-24T14:03:59;12.40;99.90
20750;DHT22;10535;50.664;4.564;2023-04-24T14:06:25;12.50;99.90
20750;DHT22;10535;50.664;4.564;2023-04-24T14:08:51;12.50;99.90
20750;DHT22;10535;50.664;4.564;2023-04-24T14:11:18;12.30;99.90
20750;DHT22;10535;50.664;4.564;2023-04-24T14:13:44;12.30;99.90
20750;DHT22;10535;50.664;4.564;2023-04-24T14:16:10;12.60;99.90
20750;DHT22;10535;50.664;4.564;2023-04-24T14:18:35;12.60;99.90
20750;DHT22;10535;50.664;4.564;2023-04-24T14:21:02;12.60;99.90
20750;DHT22;10535;50.664;4.564;2023-04-24T14:23:28;12.60;99.90
20750;DHT22;10535;50.664;4.564;2023-04-24T14:25:54;12.60;99.90
20750;DHT22;10535;50.664;4.564;2023-04-24T14:28:20;12.60;99.90
20750;DHT22;10535;50.664;4.564;2023-04-24T14:30:47;12.60;99.90
20750;DHT22;10535;50.664;4.564;2023-04-24T14:33:13;12.80;99.90
20750;DHT22;10535;50.664;4.564;2023-04-24T14:35:39;12.80;99.90
20750;DHT22;10535;50.664;4.564;2023-04-24T14:38:07;12.90;99.90
20750;DHT22;10535;50.664;4.564;2023-04-24T14:40:33;13.00;99.90
20750;DHT22;10535;50.664;4.564;2023-04-24T14:42:59;12.70;99.90
20750;DHT22;10535;50.664;4.564;2023-04-24T14:45:25;12.80;99.90
20750;DHT22;10535;50.664;4.564;2023-04-24T14:47:51;12.70;99.90
20750;DHT22;10535;50.664;4.564;2023-04-24T14:50:17;12.50;99.90
20750;DHT22;10535;50.664;4.564;2023-04-24T14:52:43;12.50;99.90
20750;DHT22;10535;50.664;4.564;2023-04-24T14:55:08;12.40;99.90
20750;DHT22;10535;50.664;4.564;2023-04-24T14:57:34;12.40;99.90
20750;DHT22;10535;50.664;4.564;2023-04-24T15:00:05;12.50;99.90
20750;DHT22;10535;50.664;4.564;2023-04-24T15:02:33;12.30;99.90
20750;DHT22;10535;50.664;4.564;2023-04-24T15:04:59;12.30;99.90
20750;DHT22;10535;50.664;4.564;2023-04-24T15:07:25;12.70;99.90
20750;DHT22;10535;50.664;4.564;2023-04-24T15:09:50;13.00;99.90
20750;DHT22;10535;50.664;4.564;2023-04-24T15:12:16;13.70;99.90
20750;DHT22;10535;50.664;4.564;2023-04-24T15:14:42;13.90;99.90
20750;DHT22;10535;50.664;4.564;2023-04-24T15:17:08;13.90;99.90
20750;DHT22;10535;50.664;4.564;2023-04-24T15:19:34;13.60;99.90
20750;DHT22;10535;50.664;4.564;2023-04-24T15:21:59;13.60;99.90
20750;DHT22;10535;50.664;4.564;2023-04-24T15:24:25;13.70;99.90
20750;DHT22;10535;50.664;4.564;2023-04-24T15:26:51;13.50;99.90
20750;DHT22;10535;50.664;4.564;2023-04-24T15:29:17;13.40;99.90
20750;DHT22;10535;50.664;4.564;2023-04-24T15:31:42;13.50;99.90
20750;DHT22;10535;50.664;4.564;2023-04-24T15:34:08;13.20;99.90
20750;DHT22;10535;50.664;4.564;2023-04-24T15:36:34;13.10;99.90
20750;DHT22;10535;50.664;4.564;2023-04-24T15:39:03;12.80;99.90
20750;DHT22;10535;50.664;4.564;2023-04-24T15:41:29;13.00;99.90
20750;DHT22;10535;50.664;4.564;2023-04-24T15:43:57;13.10;99.90